Terminal Aerodrome Forecast
Issued by NWS Lake Charles, LA

Home | Current Version | Previous Version | Text Only | Print | Product List | Glossary On
Versions: 1 2 3 4 5 6 7 8 9 10 11 12 13 14 15 16 17 18
000
FTUS44 KLCH 242300
TAFLFT
TAF
KLFT 242320Z 2500/2524 20010KT P6SM SCT070
      TEMPO 2500/2503 BKN025
     FM250300 19010KT P6SM OVC025
     FM250600 VRB04KT 5SM BR OVC012
     FM251400 VRB04KT P6SM SCT010 SCT030=

USA.gov is the U.S. government's official web portal to all federal, state and local government web resources and services.